Airbus 319-112 from Germanwings at Dusseldorf.
 Regi:D-AKNH  LARGER
 MSN Year:794 1998
 Date of picture:2015-03-18 11:54
 Position:M
 Logs:
 Metar SA 18/03/2015 11:50 METAR EDDL 181150Z 30007KT 8000 NSC 16/07 Q1026 NOSIG=
 Hits: 20 ID: 2402

Debriefing: Photographed movements of Airports in NW-Europe.
The images of our site attendant is in authorisation from Queen of Sky.
Copying of images of this site have been prohibited in which manner without the authorisation of the photographer.
In behalf of the crew :"Thank you visiting us" - Contact
Factsheets Airbus, 319-112, Germanwings, made by De Plane! © 2006 - 2022 All rights reserved


.